Time;durP1;ratioP1;P1;durP2;ratioP2;P2;SDS_P1;SDS_P2;PMS_P1;PMS_P2;Temp;Humidity;BMP_temperature;BMP_pressure;BME280_temperature;BME280_humidity;BME280_pressure;Samples;Min_cycle;Max_cycle;Signal;HPM_P1;HPM_P2
2022/06/27 03:02:22;;;;;;;0.70;0.50;;;21.10;81.00;;;;;;5300252;23;20566;-72
2022/06/27 03:04:48;;;;;;;0.70;0.60;;;21.00;81.00;;;;;;4997142;28;20518;-70
2022/06/27 03:07:15;;;;;;;0.70;0.50;;;21.00;81.20;;;;;;4996788;28;20794;-70
2022/06/27 03:09:42;;;;;;;0.67;0.50;;;20.90;81.30;;;;;;4997012;28;20444;-70
2022/06/27 03:12:09;;;;;;;0.73;0.60;;;20.50;82.10;;;;;;4996972;28;20522;-69
2022/06/27 03:14:35;;;;;;;0.70;0.50;;;20.20;83.40;;;;;;4998432;28;20452;-70
2022/06/27 03:17:03;;;;;;;0.70;0.60;;;20.10;83.90;;;;;;4996922;28;20491;-70
2022/06/27 03:19:31;;;;;;;0.70;0.70;;;19.90;84.90;;;;;;4996835;28;20542;-70
2022/06/27 03:21:58;;;;;;;0.70;0.60;;;19.90;84.80;;;;;;4996752;28;20468;-70
2022/06/27 03:24:24;;;;;;;0.70;0.60;;;19.90;84.70;;;;;;4996827;28;20448;-70
2022/06/27 03:26:51;;;;;;;0.70;0.70;;;19.80;85.20;;;;;;4996430;28;20796;-70
2022/06/27 03:29:18;;;;;;;0.70;0.60;;;19.60;86.10;;;;;;4996685;28;20451;-70
2022/06/27 03:31:45;;;;;;;0.70;0.60;;;19.70;85.80;;;;;;4996219;28;21058;-69
2022/06/27 03:34:12;;;;;;;0.93;0.60;;;19.70;86.00;;;;;;4996583;28;20536;-70
2022/06/27 03:36:43;;;;;;;0.70;0.60;;;19.50;86.40;;;;;;4996218;28;20871;-69
2022/06/27 03:39:11;;;;;;;0.70;0.60;;;19.30;87.20;;;;;;4996475;28;20469;-69
2022/06/27 03:41:39;;;;;;;0.70;0.70;;;19.10;88.50;;;;;;4996372;28;20477;-70
2022/06/27 03:44:08;;;;;;;0.70;0.60;;;19.20;88.40;;;;;;4996368;28;20476;-69
2022/06/27 03:46:35;;;;;;;1.20;0.80;;;19.30;87.80;;;;;;4996350;28;20492;-73
2022/06/27 03:51:48;;;;;;;3.03;0.63;;;19.10;87.80;;;;;;4995340;28;20441;-73
2022/06/27 03:54:15;;;;;;;0.70;0.60;;;18.90;89.00;;;;;;4996216;28;20453;-72
2022/06/27 03:56:42;;;;;;;0.80;0.60;;;19.00;89.20;;;;;;4995898;28;20933;-69
2022/06/27 03:59:08;;;;;;;0.70;0.60;;;19.10;89.00;;;;;;4996066;28;20512;-70
2022/06/27 04:01:35;;;;;;;0.70;0.50;;;19.40;88.10;;;;;;4995770;28;20540;-70
2022/06/27 04:04:03;;;;;;;0.70;0.60;;;19.50;87.10;;;;;;4996051;28;20453;-70
2022/06/27 04:06:29;;;;;;;0.90;0.70;;;19.50;87.00;;;;;;4996246;28;20504;-70
2022/06/27 04:08:58;;;;;;;0.70;0.60;;;19.20;87.80;;;;;;4995957;28;20457;-69
2022/06/27 04:11:25;;;;;;;0.70;0.60;;;19.10;89.00;;;;;;4995565;28;21063;-70
2022/06/27 04:13:52;;;;;;;0.87;0.70;;;19.30;88.30;;;;;;4995836;28;20453;-70
2022/06/27 04:16:18;;;;;;;0.70;0.60;;;19.10;88.90;;;;;;4995816;28;20449;-69
2022/06/27 04:18:45;;;;;;;0.70;0.60;;;18.90;89.20;;;;;;4995689;28;20539;-70
2022/06/27 04:21:12;;;;;;;0.80;0.60;;;18.80;89.70;;;;;;4995750;28;20473;-70
2022/06/27 04:23:40;;;;;;;0.70;0.60;;;18.90;89.90;;;;;;4995697;28;20452;-70
2022/06/27 04:26:08;;;;;;;0.70;0.60;;;18.90;90.00;;;;;;4995585;28;20460;-69
2022/06/27 04:28:35;;;;;;;0.70;0.60;;;18.90;90.30;;;;;;4995611;28;20499;-70
2022/06/27 04:31:02;;;;;;;0.77;0.70;;;19.00;90.20;;;;;;4995448;28;20536;-70
2022/06/27 04:33:29;;;;;;;0.70;0.60;;;19.10;89.90;;;;;;4995511;28;20460;-69
2022/06/27 04:35:56;;;;;;;0.70;0.60;;;19.30;88.80;;;;;;4995139;28;20958;-69
2022/06/27 04:38:23;;;;;;;0.70;0.60;;;19.20;89.30;;;;;;4995316;28;20481;-70
2022/06/27 04:40:49;;;;;;;0.70;0.60;;;19.20;89.10;;;;;;4994942;28;20848;-70
2022/06/27 04:43:17;;;;;;;0.80;0.70;;;19.20;89.30;;;;;;4995006;28;20940;-70
2022/06/27 04:45:44;;;;;;;0.70;0.63;;;19.30;88.80;;;;;;4995282;28;20453;-70
2022/06/27 04:48:11;;;;;;;0.70;0.50;;;19.40;88.60;;;;;;4995224;28;20526;-70
2022/06/27 04:50:38;;;;;;;0.70;0.70;;;19.40;88.50;;;;;;4995046;28;20987;-70
2022/06/27 04:53:06;;;;;;;0.63;0.50;;;19.50;88.90;;;;;;4995132;28;20457;-70
2022/06/27 04:55:33;;;;;;;0.90;0.70;;;19.70;88.70;;;;;;4995078;28;20453;-70
2022/06/27 04:58:00;;;;;;;0.70;0.60;;;19.70;88.80;;;;;;4995076;28;20827;-70
2022/06/27 05:00:28;;;;;;;0.70;0.60;;;19.60;88.40;;;;;;4994866;28;20487;-70
2022/06/27 05:02:55;;;;;;;0.70;0.60;;;19.50;89.30;;;;;;4994223;28;20499;-70
2022/06/27 05:05:22;;;;;;;0.70;0.60;;;19.40;89.60;;;;;;4995143;28;20458;-70
2022/06/27 05:07:48;;;;;;;0.80;0.60;;;19.40;90.20;;;;;;4994888;28;20508;-70
2022/06/27 05:10:15;;;;;;;0.70;0.57;;;19.50;90.40;;;;;;4994825;28;20450;-70
2022/06/27 05:12:42;;;;;;;0.80;0.60;;;19.60;89.50;;;;;;4994735;28;20531;-69
2022/06/27 05:15:09;;;;;;;0.70;0.60;;;19.60;90.20;;;;;;4994664;28;20445;-69
2022/06/27 05:17:38;;;;;;;0.70;0.60;;;19.60;89.10;;;;;;4994695;28;20503;-70
2022/06/27 05:20:06;;;;;;;0.70;0.60;;;19.60;89.70;;;;;;4994795;28;20485;-70
2022/06/27 05:22:33;;;;;;;0.70;0.60;;;19.50;90.30;;;;;;4994272;28;20909;-70
2022/06/27 05:24:59;;;;;;;0.70;0.50;;;19.50;90.80;;;;;;4994847;28;20453;-69
2022/06/27 05:27:26;;;;;;;0.70;0.60;;;19.60;90.40;;;;;;4994546;28;20453;-70
2022/06/27 05:29:53;;;;;;;0.70;0.60;;;19.60;89.60;;;;;;4994520;28;20448;-70
2022/06/27 05:32:19;;;;;;;0.70;0.60;;;19.40;90.30;;;;;;4994334;28;20588;-69
2022/06/27 05:34:47;;;;;;;0.70;0.60;;;19.40;91.00;;;;;;4994388;28;20496;-69
2022/06/27 05:37:14;;;;;;;0.70;0.60;;;19.70;90.70;;;;;;4994317;28;20544;-68
2022/06/27 05:39:43;;;;;;;0.93;0.60;;;20.00;90.10;;;;;;4994180;28;20527;-70
2022/06/27 05:42:09;;;;;;;0.80;0.70;;;20.30;89.00;;;;;;4994260;28;20524;-70
2022/06/27 05:44:36;;;;;;;0.70;0.50;;;20.50;88.00;;;;;;4993997;28;20504;-69
2022/06/27 05:47:03;;;;;;;0.80;0.70;;;20.80;87.70;;;;;;4994234;28;20480;-70
2022/06/27 05:49:30;;;;;;;0.80;0.60;;;21.00;86.90;;;;;;4994148;28;20491;-69
2022/06/27 05:52:00;;;;;;;0.80;0.70;;;21.00;85.60;;;;;;4994064;28;20478;-69
2022/06/27 05:54:27;;;;;;;0.70;0.60;;;21.20;85.60;;;;;;4994358;28;20445;-69
2022/06/27 05:56:54;;;;;;;0.70;0.57;;;21.20;85.40;;;;;;4994064;28;20464;-70
2022/06/27 05:59:22;;;;;;;0.70;0.50;;;21.30;85.10;;;;;;4993661;28;20995;-70
2022/06/27 06:01:51;;;;;;;0.80;0.60;;;21.40;84.70;;;;;;4993569;28;20492;-69
2022/06/27 06:04:18;;;;;;;0.70;0.57;;;21.50;84.70;;;;;;4993692;28;20920;-69
2022/06/27 06:06:44;;;;;;;0.80;0.60;;;21.50;84.50;;;;;;4994138;28;20864;-69
2022/06/27 06:09:13;;;;;;;0.70;0.60;;;21.50;84.30;;;;;;4993876;28;20449;-69
2022/06/27 06:11:40;;;;;;;0.70;0.60;;;21.50;83.80;;;;;;4993847;28;20507;-68
2022/06/27 06:14:08;;;;;;;0.70;0.60;;;21.50;84.00;;;;;;4995020;28;20444;-69
2022/06/27 06:16:35;;;;;;;0.70;0.60;;;21.60;83.80;;;;;;4997991;28;20453;-69
2022/06/27 06:19:02;;;;;;;0.80;0.70;;;21.60;83.70;;;;;;4997835;28;20485;-69
2022/06/27 06:21:29;;;;;;;0.70;0.50;;;21.70;83.60;;;;;;4997850;28;20539;-69
2022/06/27 06:23:57;;;;;;;0.90;0.70;;;21.80;83.40;;;;;;4997863;28;20555;-68
2022/06/27 06:26:25;;;;;;;0.70;0.60;;;21.90;83.10;;;;;;4997855;28;20547;-69
2022/06/27 06:28:53;;;;;;;0.70;0.50;;;22.10;83.00;;;;;;4997783;28;20452;-69
2022/06/27 06:31:23;;;;;;;0.70;0.50;;;22.30;82.60;;;;;;4997355;28;20972;-68
2022/06/27 06:33:51;;;;;;;0.90;0.60;;;22.40;81.20;;;;;;4997683;28;20459;-69
2022/06/27 06:36:18;;;;;;;0.70;0.60;;;22.70;80.70;;;;;;4997871;28;20484;-69
2022/06/27 06:38:45;;;;;;;0.70;0.60;;;22.80;80.20;;;;;;4997539;28;20460;-66
2022/06/27 06:41:12;;;;;;;0.70;0.50;;;23.10;79.70;;;;;;4997214;28;21002;-69
2022/06/27 06:43:40;;;;;;;0.70;0.70;;;23.40;79.40;;;;;;4997532;28;20449;-69
2022/06/27 06:46:07;;;;;;;0.70;0.60;;;23.70;78.20;;;;;;4997730;28;20464;-69
2022/06/27 06:48:35;;;;;;;0.70;0.50;;;23.90;77.80;;;;;;4997439;28;20500;-68
2022/06/27 06:51:01;;;;;;;0.70;0.50;;;24.30;77.90;;;;;;4997339;28;20487;-70
2022/06/27 06:53:28;;;;;;;0.70;0.50;;;24.60;75.70;;;;;;4997348;28;20511;-70
2022/06/27 06:55:57;;;;;;;0.70;0.50;;;24.90;75.00;;;;;;4997283;28;20449;-70
2022/06/27 06:58:25;;;;;;;0.70;0.60;;;25.00;73.30;;;;;;4997176;28;20449;-70
2022/06/27 07:00:53;;;;;;;0.80;0.60;;;25.00;73.70;;;;;;4996821;28;20499;-69
2022/06/27 07:03:20;;;;;;;0.70;0.50;;;25.10;74.20;;;;;;4997088;28;20437;-70
2022/06/27 07:05:47;;;;;;;0.70;0.60;;;25.10;74.60;;;;;;4997088;28;20461;-70
2022/06/27 07:08:14;;;;;;;0.70;0.50;;;25.30;73.10;;;;;;4997218;28;20451;-69
2022/06/27 07:10:41;;;;;;;0.73;0.57;;;25.50;71.30;;;;;;4996959;28;20516;-70
2022/06/27 07:13:08;;;;;;;0.70;0.50;;;25.50;71.40;;;;;;4996960;28;20448;-70
2022/06/27 07:15:35;;;;;;;0.70;0.60;;;25.60;70.90;;;;;;4997200;28;20547;-70
2022/06/27 07:18:04;;;;;;;0.70;0.60;;;25.70;69.90;;;;;;4996818;28;20504;-69
2022/06/27 07:20:32;;;;;;;0.70;0.60;;;25.80;69.90;;;;;;4996703;28;20488;-70
2022/06/27 07:22:59;;;;;;;0.70;0.60;;;26.00;70.60;;;;;;4996737;28;20449;-70
2022/06/27 07:25:26;;;;;;;0.70;0.60;;;25.90;72.00;;;;;;4996419;28;20519;-71
2022/06/27 07:27:53;;;;;;;0.70;0.50;;;25.90;70.70;;;;;;4996678;28;20448;-70
2022/06/27 07:30:20;;;;;;;0.70;0.60;;;25.90;70.60;;;;;;4996285;28;20823;-70
2022/06/27 07:32:47;;;;;;;0.70;0.60;;;25.90;70.40;;;;;;4996543;28;20523;-69
2022/06/27 07:35:16;;;;;;;0.70;0.60;;;25.70;71.00;;;;;;4996280;28;20452;-71
2022/06/27 07:37:48;;;;;;;1.30;0.60;;;24.90;73.20;;;;;;4996558;28;20449;-69
2022/06/27 07:40:15;;;;;;;0.70;0.60;;;25.00;72.30;;;;;;4996418;28;20975;-70
2022/06/27 07:42:42;;;;;;;0.70;0.60;;;25.10;72.80;;;;;;4996417;28;20543;-70
2022/06/27 07:45:10;;;;;;;0.70;0.60;;;25.20;72.50;;;;;;4996686;28;20492;-70
2022/06/27 07:47:37;;;;;;;0.70;0.60;;;25.20;73.40;;;;;;4996005;28;20818;-69
2022/06/27 07:50:05;;;;;;;0.90;0.60;;;25.10;73.50;;;;;;4996278;28;20449;-70
2022/06/27 07:53:11;;;;;;;0.70;0.50;;;25.20;73.70;;;;;;4996200;28;20528;-70
2022/06/27 07:55:24;;;;;;;0.70;0.50;;;25.20;73.60;;;;;;4995798;28;20932;-70
2022/06/27 07:57:52;;;;;;;0.70;0.50;;;25.20;73.70;;;;;;4996148;28;20444;-70
2022/06/27 08:00:19;;;;;;;0.70;0.60;;;25.10;73.50;;;;;;4996068;28;20500;-71
2022/06/27 08:02:46;;;;;;;0.70;0.50;;;25.00;73.30;;;;;;4995640;28;20569;-70
2022/06/27 08:05:13;;;;;;;0.70;0.60;;;25.00;73.70;;;;;;4996061;28;20453;-70
2022/06/27 08:07:41;;;;;;;0.70;0.50;;;25.10;73.70;;;;;;4995989;28;20445;-71
2022/06/27 08:10:09;;;;;;;0.70;0.60;;;25.30;73.60;;;;;;4995973;28;20870;-73
2022/06/27 08:12:36;;;;;;;0.70;0.57;;;25.60;72.50;;;;;;4995832;28;20488;-73
2022/06/27 08:15:02;;;;;;;0.70;0.60;;;25.80;71.30;;;;;;4995880;28;20539;-72
2022/06/27 08:17:29;;;;;;;0.70;0.60;;;25.80;71.70;;;;;;4995798;28;20457;-70
2022/06/27 08:19:56;;;;;;;0.80;0.70;;;26.00;70.70;;;;;;4995319;28;20580;-70
2022/06/27 08:22:24;;;;;;;0.73;0.60;;;26.00;71.20;;;;;;4995293;28;21051;-70
2022/06/27 08:24:52;;;;;;;0.80;0.70;;;26.00;71.10;;;;;;4995682;28;20449;-70
2022/06/27 08:27:20;;;;;;;0.70;0.50;;;25.80;72.10;;;;;;4995627;28;20457;-70
2022/06/27 08:29:46;;;;;;;0.80;0.70;;;25.80;72.70;;;;;;4995514;28;20504;-71
2022/06/27 08:32:13;;;;;;;0.70;0.60;;;25.80;72.50;;;;;;4995376;28;20479;-71
2022/06/27 08:34:40;;;;;;;1.20;0.70;;;25.60;72.20;;;;;;4995460;28;20449;-71
2022/06/27 08:37:07;;;;;;;0.80;0.60;;;25.50;72.00;;;;;;4994414;28;21032;-70
2022/06/27 08:39:34;;;;;;;0.70;0.60;;;25.40;72.90;;;;;;4995333;28;20449;-70
2022/06/27 08:42:02;;;;;;;0.93;0.70;;;25.30;72.90;;;;;;4995254;28;20468;-70
2022/06/27 08:44:31;;;;;;;0.70;0.50;;;25.10;73.40;;;;;;4995284;28;20461;-70
2022/06/27 08:46:58;;;;;;;0.70;0.50;;;24.90;74.50;;;;;;4995236;28;20480;-70
2022/06/27 08:49:25;;;;;;;0.70;0.60;;;24.60;74.00;;;;;;4995459;28;20540;-70
2022/06/27 08:51:52;;;;;;;0.80;0.60;;;24.60;73.90;;;;;;4994741;28;20885;-70
2022/06/27 08:54:19;;;;;;;1.00;0.60;;;24.70;74.80;;;;;;4994795;28;20936;-70
2022/06/27 08:56:45;;;;;;;0.70;0.53;;;24.50;74.40;;;;;;4995051;28;20453;-70
2022/06/27 08:59:14;;;;;;;0.70;0.53;;;24.50;74.70;;;;;;4995041;28;20507;-70
2022/06/27 09:01:41;;;;;;;0.70;0.50;;;24.70;74.60;;;;;;4994479;28;20504;-71
2022/06/27 09:04:10;;;;;;;0.70;0.50;;;24.60;73.00;;;;;;4994866;28;20457;-71
2022/06/27 09:06:54;;;;;;;0.80;0.60;;;24.60;74.40;;;;;;4994885;28;20476;-70
2022/06/27 09:09:24;;;;;;;0.80;0.60;;;24.60;74.60;;;;;;4994859;28;20528;-69
2022/06/27 09:11:51;;;;;;;0.70;0.50;;;24.80;73.80;;;;;;4994383;28;20992;-70
2022/06/27 09:14:34;;;;;;;0.70;0.50;;;24.90;73.00;;;;;;4995991;28;20453;-70
2022/06/27 09:17:04;;;;;;;0.90;0.70;;;25.00;71.70;;;;;;4994713;28;20461;-70
2022/06/27 09:19:48;;;;;;;1.20;0.60;;;24.90;72.60;;;;;;4994191;28;20460;-70
2022/06/27 09:22:17;;;;;;;0.70;0.50;;;24.90;72.70;;;;;;4994529;28;20556;-70
2022/06/27 09:24:59;;;;;;;1.00;0.70;;;24.90;73.10;;;;;;4994226;28;20456;-71
2022/06/27 09:27:44;;;;;;;0.70;0.50;;;24.80;73.20;;;;;;4994548;28;20438;-71
2022/06/27 09:30:27;;;;;;;0.70;0.70;;;24.50;72.60;;;;;;4994540;28;20480;-70
2022/06/27 09:32:56;;;;;;;0.70;0.57;;;24.40;72.90;;;;;;4994519;28;20805;-70
2022/06/27 09:35:25;;;;;;;0.80;0.60;;;24.40;73.10;;;;;;4994380;28;20449;-70
2022/06/27 09:37:53;;;;;;;0.80;0.60;;;24.30;74.00;;;;;;4994366;28;20445;-70
2022/06/27 09:40:22;;;;;;;0.70;0.57;;;24.30;74.50;;;;;;4993951;28;20999;-69
2022/06/27 09:42:50;;;;;;;0.80;0.70;;;24.40;74.30;;;;;;4994291;28;20453;-70
2022/06/27 09:45:18;;;;;;;0.70;0.60;;;24.40;73.80;;;;;;4994243;28;20884;-70
2022/06/27 09:47:47;;;;;;;0.70;0.57;;;24.40;75.00;;;;;;4994224;28;20449;-70
2022/06/27 09:50:15;;;;;;;0.90;0.60;;;24.40;73.80;;;;;;4994196;28;20441;-70
2022/06/27 09:52:42;;;;;;;0.70;0.60;;;24.40;73.30;;;;;;4994093;28;20472;-70
2022/06/27 09:55:09;;;;;;;0.80;0.60;;;24.50;73.20;;;;;;4994078;28;20959;-70
2022/06/27 09:57:37;;;;;;;0.70;0.60;;;24.60;72.70;;;;;;4993993;28;20500;-69
2022/06/27 10:00:06;;;;;;;0.70;0.70;;;24.50;72.20;;;;;;4993935;28;20485;-70
2022/06/27 10:02:33;;;;;;;0.70;0.50;;;24.40;72.50;;;;;;4993831;28;20489;-70
2022/06/27 10:05:02;;;;;;;0.97;0.57;;;24.40;72.40;;;;;;4993675;28;20953;-70
2022/06/27 10:07:29;;;;;;;0.80;0.70;;;24.30;73.00;;;;;;4994006;28;20487;-70
2022/06/27 10:09:56;;;;;;;0.70;0.50;;;24.30;73.40;;;;;;4993995;28;20543;-70
2022/06/27 10:12:25;;;;;;;0.70;0.60;;;24.30;73.50;;;;;;4993857;28;20469;-70
2022/06/27 10:15:20;;;;;;;0.73;0.60;;;24.10;74.10;;;;;;4993477;28;20801;-70
2022/06/27 10:17:52;;;;;;;0.70;0.60;;;24.00;74.60;;;;;;4993895;28;20449;-70
2022/06/27 10:20:28;;;;;;;0.70;0.60;;;24.00;74.20;;;;;;4993802;28;20591;-70
2022/06/27 10:23:23;;;;;;;0.70;0.60;;;24.00;74.60;;;;;;4993877;28;20492;-70
2022/06/27 10:25:50;;;;;;;0.70;0.60;;;23.90;75.30;;;;;;4993804;28;20459;-70
2022/06/27 10:28:18;;;;;;;0.70;0.53;;;23.90;74.40;;;;;;4993500;28;20456;-70
2022/06/27 10:30:46;;;;;;;0.70;0.50;;;23.90;75.00;;;;;;4993831;28;20809;-70
2022/06/27 10:33:40;;;;;;;0.70;0.60;;;23.70;75.30;;;;;;4993514;28;20963;-70
2022/06/27 10:36:13;;;;;;;0.70;0.50;;;23.70;75.50;;;;;;4988569;28;20449;-70
2022/06/27 10:39:03;;;;;;;0.70;0.60;;;23.70;75.30;;;;;;4993817;28;20447;-70
2022/06/27 10:41:43;;;;;;;0.70;0.50;;;23.60;75.90;;;;;;4990696;28;21071;-70
2022/06/27 10:44:30;;;;;;;0.70;0.57;;;23.60;75.80;;;;;;4993700;28;20824;-70
2022/06/27 10:46:57;;;;;;;0.70;0.53;;;23.60;75.90;;;;;;4993776;28;20524;-70
2022/06/27 10:49:26;;;;;;;0.80;0.60;;;23.50;76.50;;;;;;4993615;28;20468;-70
2022/06/27 10:52:32;;;;;;;0.70;0.60;;;23.40;76.80;;;;;;4993666;28;20559;-70
2022/06/27 10:54:59;;;;;;;0.70;0.60;;;23.40;77.40;;;;;;4993648;28;20503;-70
2022/06/27 10:57:54;;;;;;;0.70;0.60;;;23.40;77.20;;;;;;4993236;28;20937;-69
2022/06/27 11:00:48;;;;;;;0.70;0.60;;;23.30;78.00;;;;;;4971410;28;20485;-69
2022/06/27 11:03:25;;;;;;;0.70;0.60;;;23.30;77.90;;;;;;4997104;28;20524;-70
2022/06/27 11:05:55;;;;;;;0.70;0.60;;;23.40;77.40;;;;;;4997237;28;20429;-70
2022/06/27 11:09:07;;;;;;;0.70;0.60;;;23.50;77.10;;;;;;4997250;28;20507;-70
2022/06/27 11:11:35;;;;;;;0.70;0.67;;;23.40;77.10;;;;;;4984022;28;20523;-70
2022/06/27 11:14:02;;;;;;;1.03;0.50;;;23.40;77.30;;;;;;4997118;28;20445;-70
2022/06/27 11:16:31;;;;;;;0.70;0.60;;;23.50;77.30;;;;;;4996738;28;20872;-71
2022/06/27 11:18:59;;;;;;;0.70;0.60;;;23.50;77.00;;;;;;4996945;28;20457;-70
2022/06/27 11:21:27;;;;;;;0.77;0.70;;;23.50;77.10;;;;;;4996806;28;20535;-70
2022/06/27 11:23:57;;;;;;;0.70;0.50;;;23.40;76.80;;;;;;4996934;28;20453;-70
2022/06/27 11:26:26;;;;;;;0.83;0.60;;;23.60;76.90;;;;;;4996953;28;20453;-70
2022/06/27 11:34:24;;;;;;;0.70;0.60;;;23.40;76.00;;;;;;4996546;28;20416;-70
2022/06/27 11:36:51;;;;;;;0.70;0.60;;;23.40;75.60;;;;;;4996924;28;20460;-70
2022/06/27 11:39:23;;;;;;;0.70;0.60;;;23.40;75.70;;;;;;4996586;28;20445;-70
2022/06/27 11:41:56;;;;;;;0.70;0.60;;;23.40;75.30;;;;;;4996412;28;20496;-71
2022/06/27 11:44:25;;;;;;;0.70;0.60;;;23.40;74.90;;;;;;4996590;28;20864;-70
2022/06/27 11:46:53;;;;;;;0.70;0.60;;;23.30;75.00;;;;;;4996428;28;20441;-70
2022/06/27 11:49:30;;;;;;;0.70;0.63;;;23.30;75.30;;;;;;4996447;28;20848;-70
2022/06/27 11:51:59;;;;;;;0.70;0.50;;;23.30;75.60;;;;;;4996307;28;20547;-70
2022/06/27 11:54:26;;;;;;;0.70;0.50;;;23.30;74.90;;;;;;4995999;28;21048;-70
2022/06/27 11:56:53;;;;;;;1.13;0.57;;;23.40;74.80;;;;;;4997033;28;20452;-70
2022/06/27 11:59:20;;;;;;;0.70;0.50;;;23.40;74.60;;;;;;4996162;28;20540;-70
2022/06/27 12:01:53;;;;;;;0.70;0.60;;;23.30;73.80;;;;;;4995603;28;20500;-70
2022/06/27 12:04:26;;;;;;;0.70;0.60;;;23.20;74.30;;;;;;4996137;28;20430;-70
2022/06/27 12:06:54;;;;;;;0.70;0.60;;;23.30;74.30;;;;;;4996212;28;20433;-71
2022/06/27 12:09:22;;;;;;;0.70;0.60;;;23.20;73.90;;;;;;4995937;28;20796;-70
2022/06/27 12:11:58;;;;;;;0.70;0.60;;;23.20;74.10;;;;;;4994854;28;20461;-71
2022/06/27 12:14:26;;;;;;;0.70;0.60;;;23.20;74.30;;;;;;4996004;28;20529;-70
2022/06/27 12:16:55;;;;;;;0.70;0.60;;;23.30;74.40;;;;;;4995926;28;20454;-71
2022/06/27 12:19:23;;;;;;;0.70;0.53;;;23.40;74.60;;;;;;4995792;28;20445;-70
2022/06/27 12:21:50;;;;;;;0.70;0.60;;;23.40;74.60;;;;;;4995659;28;20484;-70
2022/06/27 12:24:17;;;;;;;0.77;0.60;;;23.40;75.00;;;;;;4995820;28;20795;-70
2022/06/27 12:26:44;;;;;;;0.80;0.60;;;23.40;75.10;;;;;;4995714;28;20532;-70
2022/06/27 12:29:11;;;;;;;0.70;0.60;;;23.30;75.50;;;;;;4995385;28;20969;-70
2022/06/27 12:31:40;;;;;;;0.70;0.60;;;23.20;75.00;;;;;;4995584;28;20515;-70
2022/06/27 12:34:09;;;;;;;0.77;0.70;;;23.20;75.10;;;;;;4995558;28;20475;-70
2022/06/27 12:36:36;;;;;;;0.70;0.50;;;23.20;76.00;;;;;;4995521;28;20503;-70
2022/06/27 12:39:04;;;;;;;0.70;0.60;;;23.30;75.30;;;;;;4995474;28;20504;-70
2022/06/27 12:41:31;;;;;;;0.70;0.50;;;23.20;75.00;;;;;;4995235;28;20493;-69
2022/06/27 12:43:58;;;;;;;0.70;0.60;;;23.10;75.00;;;;;;4995380;28;20446;-70
2022/06/27 12:46:25;;;;;;;0.80;0.60;;;23.10;75.50;;;;;;4995297;28;20448;-70
2022/06/27 12:48:55;;;;;;;0.70;0.53;;;23.00;75.50;;;;;;4995249;28;20548;-70
2022/06/27 12:51:26;;;;;;;0.70;0.50;;;23.00;75.50;;;;;;4995167;28;20560;-71
2022/06/27 12:53:54;;;;;;;0.70;0.60;;;23.00;75.80;;;;;;4994863;28;20433;-70
2022/06/27 12:56:22;;;;;;;0.80;0.60;;;23.10;75.30;;;;;;4995705;28;20972;-69
2022/06/27 12:58:49;;;;;;;0.70;0.60;;;23.20;75.00;;;;;;4995102;28;20535;-69
2022/06/27 13:01:16;;;;;;;0.70;0.53;;;23.20;74.60;;;;;;4994637;28;20497;-71
2022/06/27 13:03:43;;;;;;;0.70;0.50;;;23.30;75.10;;;;;;4994728;28;20536;-70
2022/06/27 13:06:11;;;;;;;0.70;0.60;;;23.40;74.50;;;;;;4995026;28;20449;-70
2022/06/27 13:08:40;;;;;;;0.90;0.60;;;23.20;74.00;;;;;;4994621;28;20452;-70
2022/06/27 13:11:07;;;;;;;0.70;0.60;;;23.20;74.70;;;;;;4994561;28;21053;-70
2022/06/27 13:13:34;;;;;;;0.70;0.60;;;23.20;74.00;;;;;;4994944;28;20457;-70
2022/06/27 13:16:01;;;;;;;0.70;0.50;;;23.10;74.40;;;;;;4994868;28;20455;-70
2022/06/27 13:18:28;;;;;;;0.70;0.57;;;23.10;74.50;;;;;;4994660;28;20449;-69
2022/06/27 13:20:55;;;;;;;0.70;0.50;;;23.00;74.40;;;;;;4994516;28;20577;-70
2022/06/27 13:23:21;;;;;;;0.70;0.60;;;23.10;74.40;;;;;;4994082;28;20468;-70
2022/06/27 13:25:49;;;;;;;0.70;0.60;;;23.10;74.20;;;;;;4994571;28;20499;-70
2022/06/27 13:28:16;;;;;;;0.70;0.60;;;23.20;74.40;;;;;;4994628;28;20449;-69
2022/06/27 13:30:43;;;;;;;0.70;0.60;;;23.10;74.70;;;;;;4994477;28;20450;-71
2022/06/27 13:33:09;;;;;;;0.70;0.57;;;23.10;74.30;;;;;;4994597;28;20441;-70
2022/06/27 13:35:36;;;;;;;0.70;0.60;;;23.20;74.30;;;;;;4994518;28;20504;-70
2022/06/27 13:38:03;;;;;;;0.70;0.60;;;23.20;74.30;;;;;;4994462;28;20532;-70
2022/06/27 13:40:30;;;;;;;0.70;0.60;;;23.20;73.60;;;;;;4994270;28;20453;-71
2022/06/27 13:42:58;;;;;;;0.70;0.60;;;23.40;73.60;;;;;;4994201;28;20485;-69
2022/06/27 13:45:25;;;;;;;0.70;0.50;;;23.40;73.20;;;;;;4994290;28;20445;-70
2022/06/27 13:47:52;;;;;;;0.70;0.50;;;23.50;73.60;;;;;;4994153;28;20512;-71
2022/06/27 13:50:19;;;;;;;0.70;0.50;;;23.70;72.60;;;;;;4993960;28;20941;-70
2022/06/27 13:52:46;;;;;;;0.70;0.50;;;23.70;72.00;;;;;;4994090;28;20543;-70
2022/06/27 13:55:13;;;;;;;0.70;0.60;;;23.70;71.80;;;;;;4994149;28;20457;-70
2022/06/27 13:57:40;;;;;;;0.70;0.50;;;23.80;72.20;;;;;;4994165;28;20480;-70
2022/06/27 14:00:09;;;;;;;0.70;0.60;;;23.90;72.50;;;;;;4993987;28;20457;-69
2022/06/27 14:02:36;;;;;;;0.70;0.50;;;24.00;72.80;;;;;;4993538;28;20572;-70
2022/06/27 14:05:03;;;;;;;0.70;0.60;;;24.00;72.90;;;;;;4994008;28;20445;-70
2022/06/27 14:07:44;;;;;;;0.70;0.70;;;24.00;71.50;;;;;;4993984;28;20503;-71
2022/06/27 14:10:13;;;;;;;0.70;0.60;;;23.90;72.20;;;;;;4994017;28;20493;-70
2022/06/27 14:12:40;;;;;;;0.70;0.50;;;23.80;73.00;;;;;;4993625;28;21054;-69
2022/06/27 14:15:09;;;;;;;0.73;0.60;;;23.90;72.40;;;;;;4993932;28;20449;-70
2022/06/27 14:17:37;;;;;;;0.70;0.60;;;23.90;71.90;;;;;;4993985;28;20456;-70
2022/06/27 14:20:06;;;;;;;0.70;0.50;;;23.80;71.60;;;;;;4993930;28;20456;-69
2022/06/27 14:22:32;;;;;;;0.70;0.60;;;23.80;71.80;;;;;;4993826;28;20524;-71
2022/06/27 14:24:59;;;;;;;1.00;0.60;;;23.90;71.60;;;;;;4993954;28;20453;-70
2022/06/27 14:27:26;;;;;;;0.70;0.63;;;23.80;71.50;;;;;;4993986;28;20457;-70
2022/06/27 14:29:53;;;;;;;0.70;0.60;;;23.80;71.60;;;;;;4993840;28;20457;-70
2022/06/27 14:32:21;;;;;;;0.70;0.60;;;23.70;71.60;;;;;;4993764;28;20469;-70
2022/06/27 14:34:47;;;;;;;0.70;0.60;;;23.70;71.30;;;;;;4994361;28;20456;-70
2022/06/27 14:37:14;;;;;;;0.70;0.60;;;23.60;71.60;;;;;;4997402;28;20456;-70
2022/06/27 14:39:41;;;;;;;0.70;0.50;;;23.60;71.00;;;;;;4997706;28;20453;-71
2022/06/27 14:42:08;;;;;;;0.70;0.57;;;23.50;71.30;;;;;;4997513;28;20496;-70
2022/06/27 14:44:35;;;;;;;0.70;0.60;;;23.40;71.20;;;;;;4997600;28;20453;-71
2022/06/27 14:47:02;;;;;;;0.70;0.50;;;23.30;71.90;;;;;;4997555;28;20453;-71
2022/06/27 14:49:31;;;;;;;0.70;0.60;;;23.30;72.30;;;;;;4997557;28;20456;-71
2022/06/27 14:51:58;;;;;;;0.80;0.60;;;23.30;72.40;;;;;;4997474;28;20544;-70
2022/06/27 14:54:25;;;;;;;0.70;0.60;;;23.40;72.60;;;;;;4997433;28;20457;-70
2022/06/27 14:56:52;;;;;;;0.70;0.50;;;23.50;72.40;;;;;;4997420;28;20453;-70
2022/06/27 14:59:18;;;;;;;0.67;0.60;;;23.40;73.00;;;;;;4997411;28;20445;-71
2022/06/27 15:01:45;;;;;;;0.70;0.60;;;23.60;72.80;;;;;;4996846;28;20551;-70
2022/06/27 15:04:12;;;;;;;0.70;0.60;;;23.80;71.90;;;;;;4997335;28;20441;-70
2022/06/27 15:06:40;;;;;;;0.67;0.50;;;23.90;73.10;;;;;;4996866;28;20876;-70
2022/06/27 15:09:07;;;;;;;0.80;0.50;;;23.80;71.40;;;;;;4996803;28;20999;-70
2022/06/27 15:11:44;;;;;;;0.70;0.50;;;23.80;70.90;;;;;;4997045;28;20476;-71
2022/06/27 15:14:12;;;;;;;0.80;0.60;;;23.90;71.80;;;;;;4998472;28;20437;-70
2022/06/27 15:16:42;;;;;;;0.70;0.60;;;23.90;72.40;;;;;;4996979;28;20451;-72
2022/06/27 15:19:09;;;;;;;0.70;0.60;;;24.00;73.10;;;;;;4996646;28;20818;-72
2022/06/27 15:21:35;;;;;;;0.70;0.60;;;24.00;72.80;;;;;;4996777;28;20473;-72
2022/06/27 15:24:04;;;;;;;0.70;0.60;;;24.10;73.00;;;;;;4996771;28;20511;-72
2022/06/27 15:26:30;;;;;;;0.70;0.50;;;24.20;72.90;;;;;;4996799;28;20444;-72
2022/06/27 15:28:57;;;;;;;0.70;0.60;;;24.20;72.90;;;;;;4996801;28;20445;-72
2022/06/27 15:31:24;;;;;;;0.70;0.50;;;24.00;72.30;;;;;;4996664;28;20472;-72
2022/06/27 15:33:50;;;;;;;0.67;0.50;;;23.80;72.20;;;;;;4996667;28;20540;-72
2022/06/27 15:36:17;;;;;;;0.70;0.50;;;23.70;72.60;;;;;;4996693;28;20590;-72
2022/06/27 15:38:44;;;;;;;0.70;0.60;;;23.60;73.10;;;;;;4996715;28;20472;-72
2022/06/27 15:41:12;;;;;;;0.70;0.50;;;23.60;73.70;;;;;;4996529;28;20472;-72
2022/06/27 15:43:38;;;;;;;0.70;0.57;;;23.70;73.70;;;;;;4996466;28;20484;-72
2022/06/27 15:46:05;;;;;;;0.70;0.50;;;23.70;73.30;;;;;;4996295;28;20508;-72
2022/06/27 15:48:33;;;;;;;0.80;0.60;;;23.60;73.40;;;;;;4996448;28;20468;-71
2022/06/27 15:51:02;;;;;;;0.70;0.50;;;23.50;74.20;;;;;;4996072;28;21059;-72
2022/06/27 15:53:29;;;;;;;0.70;0.70;;;23.60;74.40;;;;;;4996322;28;20500;-72
2022/06/27 15:55:56;;;;;;;0.90;0.60;;;23.60;74.80;;;;;;4996010;28;20456;-72
2022/06/27 15:58:24;;;;;;;0.80;0.60;;;23.70;75.10;;;;;;4997121;28;20449;-72
2022/06/27 16:00:53;;;;;;;0.80;0.80;;;23.70;75.20;;;;;;4995706;28;21050;-72
2022/06/27 16:03:21;;;;;;;0.70;0.63;;;23.80;75.50;;;;;;4996207;28;20924;-72
2022/06/27 16:05:47;;;;;;;0.70;0.50;;;23.80;75.70;;;;;;4995907;28;20450;-72